Time;durP1;ratioP1;P1;durP2;ratioP2;P2;SDS_P1;SDS_P2;PMS_P1;PMS_P2;Temp;Humidity;BMP_temperature;BMP_pressure;BME280_temperature;BME280_humidity;BME280_pressure;Samples;Min_cycle;Max_cycle;Signal;HPM_P1;HPM_P2
2023/12/20 00:01:31;;;;;;;1.73;1.63;;;;;;;21.13;36.90;100265.88;4456358;28;20034;-55
2023/12/20 00:03:41;;;;;;;1.48;1.38;;;;;;;21.11;36.70;100256.81;4456293;28;20469;-54
2023/12/20 00:05:52;;;;;;;1.20;1.10;;;;;;;21.10;36.64;100256.00;4455494;28;20122;-53
2023/12/20 00:08:04;;;;;;;1.20;1.10;;;;;;;21.09;36.96;100271.53;4456090;28;20050;-56
2023/12/20 00:10:15;;;;;;;1.17;1.08;;;;;;;21.09;36.48;100267.84;4455869;28;20048;-54
2023/12/20 00:12:25;;;;;;;1.20;1.10;;;;;;;21.07;36.38;100262.50;4455941;28;20046;-51
2023/12/20 00:14:36;;;;;;;1.38;1.00;;;;;;;21.07;36.28;100268.22;4455502;28;20132;-52
2023/12/20 00:16:46;;;;;;;1.00;0.90;;;;;;;21.07;35.96;100262.50;4456167;28;20039;-54
2023/12/20 00:18:57;;;;;;;0.88;0.88;;;;;;;21.06;36.11;100262.88;4455639;28;20480;-51
2023/12/20 00:21:07;;;;;;;0.88;0.80;;;;;;;21.04;35.61;100260.34;4455975;28;20086;-51
2023/12/20 00:23:17;;;;;;;1.63;0.90;;;;;;;21.06;35.67;100265.75;4456006;28;20046;-55
2023/12/20 00:25:28;;;;;;;0.70;0.70;;;;;;;21.05;35.83;100270.63;4455129;28;20094;-54
2023/12/20 00:27:38;;;;;;;1.05;0.70;;;;;;;21.04;35.57;100268.97;4455706;28;20122;-51
2023/12/20 00:29:50;;;;;;;0.88;0.70;;;;;;;21.04;35.54;100286.19;4455957;28;20046;-55
2023/12/20 00:32:00;;;;;;;0.70;0.60;;;;;;;21.03;35.43;100278.78;4455654;28;20091;-53
2023/12/20 00:34:10;;;;;;;1.52;0.90;;;;;;;21.03;35.22;100278.78;4455170;28;23918;-55
2023/12/20 00:36:21;;;;;;;0.85;0.70;;;;;;;21.03;35.07;100278.78;4455690;28;20055;-51
2023/12/20 00:38:31;;;;;;;0.80;0.70;;;;;;;21.02;34.91;100276.28;4455682;28;20032;-55
2023/12/20 00:40:42;;;;;;;0.80;0.70;;;;;;;21.02;34.65;100267.69;4455500;28;20548;-51
2023/12/20 00:42:52;;;;;;;0.98;0.65;;;;;;;21.02;34.86;100270.56;4455207;28;21690;-54
2023/12/20 00:45:04;;;;;;;0.60;0.50;;;;;;;21.02;34.92;100277.13;4455569;28;20199;-53
2023/12/20 00:47:15;;;;;;;0.68;0.68;;;;;;;21.01;34.92;100274.66;4470381;28;20053;-51
2023/12/20 00:49:25;;;;;;;0.60;0.60;;;;;;;21.02;35.07;100280.00;4455553;28;20043;-53
2023/12/20 00:51:35;;;;;;;0.95;0.70;;;;;;;21.00;34.73;100276.69;4455292;28;20066;-55
2023/12/20 00:53:49;;;;;;;1.00;0.60;;;;;;;21.01;34.76;100284.06;4455324;28;20094;-53
2023/12/20 00:55:59;;;;;;;1.08;0.60;;;;;;;21.00;34.81;100285.28;4455040;28;20035;-52
2023/12/20 00:58:10;;;;;;;0.73;0.70;;;;;;;21.01;34.79;100294.72;4455426;28;20140;-54
2023/12/20 01:00:20;;;;;;;1.05;0.70;;;;;;;20.99;34.96;100292.25;4455328;28;20044;-56
2023/12/20 01:02:30;;;;;;;0.70;0.60;;;;;;;20.99;34.79;100300.84;4455482;28;20480;-54
2023/12/20 01:04:41;;;;;;;0.70;0.65;;;;;;;20.99;35.17;100303.72;4454796;28;20050;-55
2023/12/20 01:06:52;;;;;;;0.90;0.73;;;;;;;20.99;35.18;100291.41;4454787;28;20058;-56
2023/12/20 01:09:02;;;;;;;1.05;0.90;;;;;;;20.98;34.80;100292.63;4455471;28;20035;-52
2023/12/20 01:11:13;;;;;;;1.02;0.80;;;;;;;20.97;35.26;100291.78;4455154;28;20040;-52
2023/12/20 01:13:23;;;;;;;1.33;1.00;;;;;;;20.98;34.97;100292.63;4453431;28;20023;-52
2023/12/20 01:15:33;;;;;;;1.00;0.90;;;;;;;20.98;34.89;100306.97;4455058;28;20036;-55
2023/12/20 01:17:44;;;;;;;1.20;0.90;;;;;;;20.97;34.90;100297.53;4454809;28;20035;-51
2023/12/20 01:19:54;;;;;;;1.02;0.90;;;;;;;20.98;35.21;100301.22;4455305;28;20035;-51
2023/12/20 01:22:05;;;;;;;1.00;0.80;;;;;;;20.96;35.29;100301.63;4455239;28;20393;-53
2023/12/20 01:24:15;;;;;;;1.35;0.98;;;;;;;20.97;34.94;100311.03;4455192;28;20496;-54
2023/12/20 01:26:25;;;;;;;1.33;1.08;;;;;;;20.97;35.21;100300.38;4454864;28;20058;-52
2023/12/20 01:28:36;;;;;;;1.40;1.00;;;;;;;20.96;35.68;100301.63;4469877;28;20408;-54
2023/12/20 01:30:46;;;;;;;1.20;1.00;;;;;;;20.97;35.54;100309.00;4454839;28;20039;-52
2023/12/20 01:32:56;;;;;;;1.27;1.17;;;;;;;20.96;35.05;100300.75;4454882;28;20132;-55
2023/12/20 01:35:07;;;;;;;1.70;1.27;;;;;;;20.96;35.33;100298.75;4454517;28;24391;-51
2023/12/20 01:37:18;;;;;;;1.33;1.13;;;;;;;20.96;35.29;100301.63;4455008;28;20055;-51
2023/12/20 01:39:28;;;;;;;1.45;1.08;;;;;;;20.96;35.57;100310.22;4455026;28;20032;-53
2023/12/20 01:41:38;;;;;;;1.02;0.93;;;;;;;20.96;35.40;100300.75;4454541;28;24271;-55
2023/12/20 01:43:49;;;;;;;1.30;1.10;;;;;;;20.97;35.35;100308.16;4454463;28;22893;-52
2023/12/20 01:46:00;;;;;;;1.15;1.05;;;;;;;20.95;35.45;100308.50;4454338;28;20047;-52
2023/12/20 01:48:10;;;;;;;2.00;1.35;;;;;;;20.95;35.31;100308.50;4469408;28;20132;-55
2023/12/20 01:50:22;;;;;;;1.90;1.38;;;;;;;20.94;35.61;100312.59;4455026;28;20075;-51
2023/12/20 01:52:33;;;;;;;1.58;1.20;;;;;;;20.94;35.86;100321.19;4453288;28;20039;-52
2023/12/20 01:54:44;;;;;;;1.83;1.33;;;;;;;20.96;35.70;100324.56;4469137;28;20041;-53
2023/12/20 01:56:54;;;;;;;1.90;1.40;;;;;;;20.94;35.33;100321.19;4454586;28;20034;-53
2023/12/20 01:59:07;;;;;;;2.15;1.83;;;;;;;20.93;35.87;100328.13;4454601;28;20122;-51
2023/12/20 02:01:18;;;;;;;1.92;1.33;;;;;;;20.94;35.43;100326.09;4454579;28;20760;-54
2023/12/20 02:03:28;;;;;;;2.40;1.50;;;;;;;20.94;35.68;100332.69;4454974;28;20019;-52
2023/12/20 02:05:39;;;;;;;1.65;1.35;;;;;;;20.94;35.43;100331.84;4454262;28;20440;-51
2023/12/20 02:07:50;;;;;;;1.80;1.45;;;;;;;20.93;35.70;100333.84;4454384;28;20039;-54
2023/12/20 02:10:04;;;;;;;1.85;1.50;;;;;;;20.93;35.16;100328.13;4454232;28;20075;-53
2023/12/20 02:12:14;;;;;;;1.42;1.30;;;;;;;20.92;35.65;100320.75;4454412;28;20918;-52
2023/12/20 02:14:25;;;;;;;2.58;1.50;;;;;;;20.92;35.15;100323.59;4454172;28;20126;-54
2023/12/20 02:16:35;;;;;;;2.05;1.60;;;;;;;20.92;35.59;100317.88;4454018;28;20388;-53
2023/12/20 02:18:45;;;;;;;2.20;1.58;;;;;;;20.93;35.41;100318.72;4453564;28;20067;-52
2023/12/20 02:20:56;;;;;;;1.75;1.50;;;;;;;20.92;35.15;100315.00;4454413;28;20051;-54
2023/12/20 02:23:06;;;;;;;1.80;1.20;;;;;;;20.92;34.94;100320.75;4454552;28;20098;-54
2023/12/20 02:25:17;;;;;;;1.73;1.48;;;;;;;20.92;35.01;100312.13;4454007;28;20047;-53
2023/12/20 02:27:28;;;;;;;1.85;1.35;;;;;;;20.93;34.66;100321.56;4454405;28;20027;-55
2023/12/20 02:29:39;;;;;;;1.90;1.33;;;;;;;20.90;35.06;100311.66;4451570;28;20179;-53
2023/12/20 02:31:49;;;;;;;2.00;1.35;;;;;;;20.91;34.91;100310.47;4454598;28;20742;-52
2023/12/20 02:33:59;;;;;;;1.83;1.38;;;;;;;20.91;34.58;100307.59;4453816;28;20144;-55
2023/12/20 02:36:10;;;;;;;2.15;1.33;;;;;;;20.91;35.31;100299.00;4454087;28;20043;-55
2023/12/20 02:38:20;;;;;;;2.20;1.27;;;;;;;20.90;34.53;100303.06;4454251;28;20059;-56
2023/12/20 02:40:31;;;;;;;1.77;1.30;;;;;;;20.90;34.21;100300.19;4453483;28;23771;-60
2023/12/20 02:42:41;;;;;;;2.40;1.38;;;;;;;20.91;34.15;100301.03;4454474;28;20050;-54
2023/12/20 02:44:51;;;;;;;1.95;1.15;;;;;;;20.90;34.15;100302.25;4453137;28;28852;-54
2023/12/20 02:47:02;;;;;;;1.55;1.23;;;;;;;20.90;34.24;100303.06;4452436;28;20047;-52
2023/12/20 02:49:13;;;;;;;1.63;1.25;;;;;;;20.90;33.84;100308.78;4453969;28;20122;-55
2023/12/20 02:51:23;;;;;;;1.83;1.40;;;;;;;20.90;33.71;100311.66;4453822;28;20587;-52
2023/12/20 02:53:33;;;;;;;2.17;1.20;;;;;;;20.89;33.84;100304.28;4453778;28;20039;-55
2023/12/20 02:55:44;;;;;;;1.92;1.40;;;;;;;20.89;34.27;100306.31;4453568;28;20042;-52
2023/12/20 02:57:54;;;;;;;1.92;1.27;;;;;;;20.89;33.65;100301.41;4453693;28;20032;-54
2023/12/20 03:00:05;;;;;;;1.90;1.33;;;;;;;20.89;33.80;100295.66;4468477;28;20056;-53
2023/12/20 03:02:16;;;;;;;1.63;1.10;;;;;;;20.88;33.80;100294.03;4454134;28;20496;-53
2023/12/20 03:04:26;;;;;;;1.20;1.10;;;;;;;20.88;33.89;100294.03;4453982;28;20362;-52
2023/12/20 03:06:37;;;;;;;2.00;1.27;;;;;;;20.87;34.22;100300.94;4453399;28;20617;-52
2023/12/20 03:08:47;;;;;;;2.38;1.20;;;;;;;20.88;33.86;100305.50;4452873;28;20058;-52
2023/12/20 03:10:59;;;;;;;1.88;1.00;;;;;;;20.87;33.47;100303.81;4453817;28;20039;-52
2023/12/20 03:13:10;;;;;;;1.40;1.10;;;;;;;20.87;33.30;100312.41;4453469;28;20039;-51
2023/12/20 03:15:20;;;;;;;1.45;0.95;;;;;;;20.89;33.35;100309.19;4452842;28;20039;-56
2023/12/20 03:17:30;;;;;;;1.55;1.10;;;;;;;20.88;33.85;100310.38;4453124;28;30697;-54
2023/12/20 03:19:41;;;;;;;1.90;1.30;;;;;;;20.88;33.72;100304.66;4451997;28;20083;-55
2023/12/20 03:21:53;;;;;;;1.73;1.20;;;;;;;20.88;33.58;100302.63;4453758;28;20023;-54
2023/12/20 03:24:03;;;;;;;2.03;1.40;;;;;;;20.88;33.92;100299.75;4453668;28;20103;-54
2023/12/20 03:26:14;;;;;;;2.10;1.45;;;;;;;20.89;33.42;100303.44;4453357;28;20094;-54
2023/12/20 03:28:24;;;;;;;1.52;1.27;;;;;;;20.88;33.60;100301.78;4453627;28;20090;-54
2023/12/20 03:30:35;;;;;;;1.67;1.20;;;;;;;20.87;33.53;100303.00;4456468;28;20144;-55
2023/12/20 03:32:46;;;;;;;1.35;1.00;;;;;;;20.87;33.81;100292.34;4456563;28;20043;-53
2023/12/20 03:34:56;;;;;;;1.25;0.90;;;;;;;20.87;33.61;100297.28;4456315;28;20035;-53
2023/12/20 03:37:07;;;;;;;1.27;0.88;;;;;;;20.87;33.58;100300.94;4456605;28;20046;-52
2023/12/20 03:39:17;;;;;;;1.40;0.98;;;;;;;20.87;34.01;100298.06;4456159;28;22751;-52
2023/12/20 03:41:28;;;;;;;1.02;0.77;;;;;;;20.87;33.74;100303.00;4456584;28;20043;-55
2023/12/20 03:43:38;;;;;;;1.60;0.80;;;;;;;20.87;33.93;100303.00;4456535;28;20073;-54
2023/12/20 03:45:48;;;;;;;1.35;0.90;;;;;;;20.86;33.78;100299.28;4455982;28;20423;-53
2023/12/20 03:47:59;;;;;;;1.45;0.90;;;;;;;20.87;33.57;100303.00;4456622;28;20055;-54
2023/12/20 03:50:09;;;;;;;1.55;1.00;;;;;;;20.86;33.89;100302.16;4455952;28;26103;-55
2023/12/20 03:52:19;;;;;;;1.88;1.00;;;;;;;20.86;33.88;100301.31;4456613;28;20431;-53
2023/12/20 03:54:30;;;;;;;1.35;0.95;;;;;;;20.87;33.68;100292.34;4456377;28;20039;-53
2023/12/20 03:56:40;;;;;;;1.45;0.93;;;;;;;20.87;33.62;100289.47;4455488;28;27070;-53
2023/12/20 03:58:51;;;;;;;1.83;0.90;;;;;;;20.87;33.74;100294.41;4456451;28;20043;-52
2023/12/20 04:01:02;;;;;;;1.67;1.00;;;;;;;20.87;33.66;100298.06;4456201;28;20032;-54
2023/12/20 04:03:13;;;;;;;2.05;1.02;;;;;;;20.85;33.55;100289.03;4456222;28;20045;-51
2023/12/20 04:05:23;;;;;;;1.63;0.98;;;;;;;20.87;33.79;100291.53;4455728;28;20050;-53
2023/12/20 04:07:35;;;;;;;1.70;0.90;;;;;;;20.86;33.32;100295.59;4456176;28;21177;-53
2023/12/20 04:09:46;;;;;;;1.40;0.90;;;;;;;20.85;33.60;100288.19;4456320;28;20126;-53
2023/12/20 04:11:57;;;;;;;2.30;0.93;;;;;;;20.83;33.40;100285.72;4456058;28;20039;-54
2023/12/20 04:14:07;;;;;;;1.67;1.02;;;;;;;20.84;33.44;100284.50;4456225;28;20480;-57
2023/12/20 04:16:18;;;;;;;2.13;1.17;;;;;;;20.86;33.48;100292.72;4455695;28;20046;-56
2023/12/20 04:18:28;;;;;;;2.05;1.05;;;;;;;20.85;33.22;100300.50;4470814;28;20073;-55
2023/12/20 04:20:38;;;;;;;2.33;0.95;;;;;;;20.86;32.93;100286.97;4455886;28;20031;-55
2023/12/20 04:22:49;;;;;;;1.13;0.95;;;;;;;20.85;33.22;100289.03;4457103;28;20484;-55
2023/12/20 04:24:59;;;;;;;1.90;1.10;;;;;;;20.85;33.24;100283.31;4455326;28;20039;-55
2023/12/20 04:27:10;;;;;;;2.15;1.10;;;;;;;20.85;33.13;100289.03;4455826;28;20051;-57
2023/12/20 04:29:21;;;;;;;2.03;1.00;;;;;;;20.85;32.88;100283.31;4455889;28;20051;-56
2023/12/20 04:31:31;;;;;;;1.73;1.13;;;;;;;20.85;33.12;100289.03;4456048;28;20039;-56
2023/12/20 04:33:41;;;;;;;2.25;0.98;;;;;;;20.85;32.81;100291.06;4455587;28;20047;-56
2023/12/20 04:35:52;;;;;;;1.38;0.90;;;;;;;20.83;32.75;100288.56;4455802;28;20171;-56
2023/12/20 04:38:02;;;;;;;2.40;1.10;;;;;;;20.84;32.89;100287.34;4455674;28;20039;-51
2023/12/20 04:40:13;;;;;;;2.10;0.93;;;;;;;20.84;32.69;100275.88;4455091;28;20046;-54
2023/12/20 04:42:23;;;;;;;1.63;1.10;;;;;;;20.84;33.22;100281.63;4455227;28;20039;-56
2023/12/20 04:44:34;;;;;;;2.70;1.20;;;;;;;20.83;33.09;100275.03;4455121;28;20563;-51
2023/12/20 04:46:44;;;;;;;2.28;1.10;;;;;;;20.83;32.98;100283.66;4455562;28;20484;-54
2023/12/20 04:48:55;;;;;;;2.10;1.10;;;;;;;20.83;32.91;100279.97;4470318;28;20106;-55
2023/12/20 04:51:06;;;;;;;2.45;1.00;;;;;;;20.82;32.74;100269.69;4455695;28;20043;-52
2023/12/20 04:53:16;;;;;;;1.73;0.90;;;;;;;20.83;32.92;100271.38;4455537;28;20046;-55
2023/12/20 04:55:26;;;;;;;1.83;0.90;;;;;;;20.83;32.81;100268.50;4455552;28;20452;-55
2023/12/20 04:57:37;;;;;;;1.98;0.95;;;;;;;20.82;32.35;100258.22;4455654;28;20039;-55
2023/12/20 04:59:47;;;;;;;1.75;0.90;;;;;;;20.83;32.50;100274.25;4454996;28;23034;-52
2023/12/20 05:01:58;;;;;;;1.40;0.95;;;;;;;20.82;32.90;100263.13;4455331;28;20075;-54
2023/12/20 05:04:08;;;;;;;1.83;0.90;;;;;;;20.82;32.40;100258.22;4453958;28;20039;-55
2023/12/20 05:06:19;;;;;;;2.53;1.02;;;;;;;20.82;32.59;100263.94;4454616;28;20075;-51
2023/12/20 05:08:29;;;;;;;1.50;0.88;;;;;;;20.83;32.43;100267.66;4455320;28;20484;-55
2023/12/20 05:10:40;;;;;;;2.75;1.08;;;;;;;20.82;32.81;100263.94;4470299;28;20117;-55
2023/12/20 05:12:50;;;;;;;1.65;0.90;;;;;;;20.82;32.43;100268.88;4455224;28;20039;-55
2023/12/20 05:15:01;;;;;;;1.65;0.98;;;;;;;20.81;32.48;100270.91;4454649;28;20433;-54
2023/12/20 05:17:11;;;;;;;1.73;0.90;;;;;;;20.81;32.77;100285.25;4455149;28;20039;-55
2023/12/20 05:19:22;;;;;;;2.10;0.95;;;;;;;20.82;32.76;100283.22;4455195;28;20031;-54
2023/12/20 05:21:33;;;;;;;1.80;1.08;;;;;;;20.80;32.74;100280.72;4455476;28;20130;-52
2023/12/20 05:23:43;;;;;;;1.83;0.90;;;;;;;20.82;32.78;100284.03;4455352;28;20040;-54
2023/12/20 05:25:54;;;;;;;1.85;0.90;;;;;;;20.80;32.68;100287.28;4454620;28;20491;-55
2023/12/20 05:28:04;;;;;;;2.08;1.00;;;;;;;20.81;32.67;100290.97;4455509;28;20523;-55
2023/12/20 05:30:15;;;;;;;2.58;1.13;;;;;;;20.81;32.50;100282.38;4455130;28;20040;-54
2023/12/20 05:32:25;;;;;;;2.00;0.95;;;;;;;20.81;32.51;100282.38;4454777;28;20042;-54
2023/12/20 05:34:36;;;;;;;2.42;1.10;;;;;;;20.81;32.55;100270.91;4454909;28;20035;-54
2023/12/20 05:36:46;;;;;;;2.38;1.30;;;;;;;20.80;32.74;100269.25;4455080;28;20134;-55
2023/12/20 05:38:57;;;;;;;2.05;1.20;;;;;;;20.79;32.71;100268.41;4454498;28;21891;-56
2023/12/20 05:41:07;;;;;;;1.67;0.93;;;;;;;20.79;32.59;100271.28;4455060;28;20043;-52
2023/12/20 05:43:17;;;;;;;2.63;1.40;;;;;;;20.80;32.51;100272.94;4455006;28;20631;-52
2023/12/20 05:45:28;;;;;;;2.70;1.25;;;;;;;20.79;32.79;100268.41;4454405;28;20106;-54
2023/12/20 05:47:38;;;;;;;1.88;1.30;;;;;;;20.80;32.67;100272.94;4454495;28;20540;-55
2023/12/20 05:49:50;;;;;;;2.17;1.30;;;;;;;20.80;32.70;100281.53;4454934;28;20051;-55
2023/12/20 05:52:00;;;;;;;2.05;1.23;;;;;;;20.80;32.97;100280.72;4453987;28;20529;-52
2023/12/20 05:54:10;;;;;;;3.00;1.13;;;;;;;20.81;32.99;100270.91;4455116;28;20035;-55
2023/12/20 05:56:22;;;;;;;2.33;1.40;;;;;;;20.81;32.80;100285.25;4454630;28;20050;-52
2023/12/20 05:58:33;;;;;;;2.53;1.10;;;;;;;20.80;32.95;100275.00;4454776;28;20027;-55
2023/12/20 06:00:43;;;;;;;2.92;1.10;;;;;;;20.77;33.19;100273.69;4454515;28;20047;-55
2023/12/20 06:02:54;;;;;;;2.92;1.33;;;;;;;20.80;33.14;100266.38;4454631;28;20057;-52
2023/12/20 06:05:05;;;;;;;2.30;1.20;;;;;;;20.78;33.23;100268.78;4454260;28;20035;-53
2023/12/20 06:07:16;;;;;;;2.70;1.20;;;;;;;20.80;33.13;100281.53;4454281;28;20084;-54
2023/12/20 06:09:27;;;;;;;2.83;1.27;;;;;;;20.81;32.71;100276.63;4454578;28;20091;-55
2023/12/20 06:11:37;;;;;;;1.88;1.13;;;;;;;20.79;33.08;100281.91;4454570;28;20039;-54
2023/12/20 06:13:48;;;;;;;2.83;1.50;;;;;;;20.79;33.18;100279.03;4453901;28;23451;-54
2023/12/20 06:15:59;;;;;;;2.05;1.30;;;;;;;20.80;33.07;100278.66;4454001;28;20891;-52
2023/12/20 06:18:09;;;;;;;2.10;1.20;;;;;;;20.80;32.53;100278.66;4454217;28;20071;-51
2023/12/20 06:20:20;;;;;;;1.83;1.10;;;;;;;20.81;32.75;100285.25;4469470;28;20054;-53
2023/12/20 06:22:30;;;;;;;2.65;1.42;;;;;;;20.78;33.05;100280.25;4454515;28;20512;-55
2023/12/20 06:24:40;;;;;;;2.00;1.13;;;;;;;20.79;33.07;100284.78;4454114;28;20041;-52
2023/12/20 06:26:51;;;;;;;2.30;1.23;;;;;;;20.79;33.14;100279.03;4454337;28;20492;-53
2023/12/20 06:29:01;;;;;;;2.38;1.27;;;;;;;20.79;33.10;100279.03;4453956;28;24274;-53
2023/12/20 06:31:12;;;;;;;2.55;1.27;;;;;;;20.78;32.61;100272.50;4454219;28;20074;-55
2023/12/20 06:33:23;;;;;;;2.15;1.40;;;;;;;20.77;32.80;100273.69;4454445;28;20090;-53
2023/12/20 06:35:34;;;;;;;2.65;1.30;;;;;;;20.79;33.18;100276.19;4454058;28;20032;-54
2023/12/20 06:37:44;;;;;;;2.38;1.30;;;;;;;20.79;32.82;100276.19;4454025;28;20656;-55
2023/12/20 06:39:54;;;;;;;1.95;1.33;;;;;;;20.80;32.66;100275.00;4453743;28;20039;-52
2023/12/20 06:42:05;;;;;;;3.40;1.40;;;;;;;20.80;33.00;100277.88;4454229;28;20031;-52
2023/12/20 06:44:15;;;;;;;2.17;1.40;;;;;;;20.80;33.08;100275.00;4453951;28;20039;-56
2023/12/20 06:46:25;;;;;;;2.78;1.25;;;;;;;20.79;33.01;100276.19;4454182;28;20031;-55
2023/12/20 06:48:36;;;;;;;2.58;1.42;;;;;;;20.78;32.71;100280.25;4453956;28;20042;-54
2023/12/20 06:50:46;;;;;;;2.47;1.55;;;;;;;20.78;32.88;100275.38;4468361;28;20555;-55
2023/12/20 06:52:56;;;;;;;2.60;1.30;;;;;;;20.79;32.60;100273.31;4453978;28;20043;-55
2023/12/20 06:55:07;;;;;;;2.55;1.38;;;;;;;20.79;33.04;100273.31;4454116;28;20046;-52
2023/12/20 06:57:19;;;;;;;2.40;1.33;;;;;;;20.77;32.83;100275.75;4454077;28;20047;-52
2023/12/20 06:59:29;;;;;;;3.35;1.50;;;;;;;20.77;32.81;100281.47;4453707;28;20114;-55
2023/12/20 07:01:40;;;;;;;2.13;1.48;;;;;;;20.77;32.83;100270.00;4441771;28;20073;-54
2023/12/20 07:03:50;;;;;;;2.60;1.45;;;;;;;20.78;32.58;100283.13;4453337;28;20167;-54
2023/12/20 07:06:01;;;;;;;2.42;1.25;;;;;;;20.77;32.83;100278.63;4453777;28;20046;-55
2023/12/20 07:08:14;;;;;;;2.67;1.60;;;;;;;20.77;32.64;100281.47;4453552;28;20499;-55
2023/12/20 07:10:24;;;;;;;2.20;1.60;;;;;;;20.77;32.78;100279.44;4454065;28;20047;-53
2023/12/20 07:12:35;;;;;;;2.83;1.40;;;;;;;20.78;32.71;100283.13;4453805;28;20031;-51
2023/12/20 07:14:46;;;;;;;3.05;1.50;;;;;;;20.77;32.83;100285.16;4453162;28;20564;-53
2023/12/20 07:16:57;;;;;;;2.35;1.30;;;;;;;20.72;33.00;100268.25;4453904;28;20789;-55
2023/12/20 07:19:07;;;;;;;3.35;1.30;;;;;;;20.72;34.13;100276.03;4468424;28;20143;-52
2023/12/20 07:21:17;;;;;;;3.55;1.58;;;;;;;20.73;32.95;100287.13;4453373;28;20522;-52
2023/12/20 07:23:28;;;;;;;4.18;1.70;;;;;;;20.72;33.54;100284.66;4453762;28;20488;-52
2023/12/20 07:25:38;;;;;;;2.65;1.50;;;;;;;20.72;34.31;100294.06;4453710;28;20063;-53
2023/12/20 07:27:49;;;;;;;3.25;1.77;;;;;;;20.74;33.60;100293.69;4453436;28;20515;-54
2023/12/20 07:29:59;;;;;;;3.20;1.67;;;;;;;20.71;35.06;100294.44;4453353;28;20875;-56
2023/12/20 07:32:09;;;;;;;2.45;1.30;;;;;;;20.71;33.16;100300.16;4453775;28;20853;-56
2023/12/20 07:34:21;;;;;;;2.72;1.30;;;;;;;20.71;33.83;100305.91;4467648;28;20027;-57
2023/12/20 07:36:31;;;;;;;2.63;1.67;;;;;;;20.71;32.81;100295.28;4453656;28;20028;-55
2023/12/20 07:38:44;;;;;;;2.05;1.30;;;;;;;20.71;33.43;100297.31;4453711;28;20035;-52
2023/12/20 07:40:57;;;;;;;3.45;1.60;;;;;;;20.68;34.92;100293.16;4453212;28;20768;-53
2023/12/20 07:43:07;;;;;;;3.53;1.30;;;;;;;20.69;33.24;100294.00;4453333;28;20638;-55
2023/12/20 07:45:18;;;;;;;2.47;1.40;;;;;;;20.70;33.69;100293.63;4453268;28;20054;-54
2023/12/20 07:47:28;;;;;;;2.67;1.40;;;;;;;20.71;32.77;100297.31;4453291;28;20047;-55
2023/12/20 07:49:38;;;;;;;3.03;1.50;;;;;;;20.71;33.05;100294.44;4452932;28;20160;-54
2023/12/20 07:51:49;;;;;;;2.42;1.48;;;;;;;20.70;32.72;100293.63;4453487;28;20086;-52
2023/12/20 07:54:00;;;;;;;2.58;1.40;;;;;;;20.70;33.05;100302.22;4452913;28;20843;-53
2023/12/20 07:56:17;;;;;;;3.42;1.63;;;;;;;20.70;32.81;100302.22;4452724;28;20078;-52
2023/12/20 07:58:29;;;;;;;3.55;1.50;;;;;;;20.70;33.44;100298.53;4453323;28;20035;-52
2023/12/20 08:00:40;;;;;;;2.63;1.30;;;;;;;20.70;33.54;100292.78;4453022;28;20142;-52
2023/12/20 08:02:50;;;;;;;3.33;1.60;;;;;;;20.70;33.12;100287.88;4452705;28;20102;-55
2023/12/20 08:05:01;;;;;;;3.55;1.75;;;;;;;20.69;32.98;100294.00;4453049;28;20043;-55
2023/12/20 08:07:11;;;;;;;2.83;1.30;;;;;;;20.70;33.04;100292.78;4452848;28;20052;-56
2023/12/20 08:09:21;;;;;;;2.60;1.40;;;;;;;20.69;32.58;100296.88;4453406;28;20087;-55
2023/12/20 08:11:32;;;;;;;3.35;1.50;;;;;;;20.70;32.96;100292.78;4467472;28;20035;-55
2023/12/20 08:13:42;;;;;;;3.05;1.55;;;;;;;20.69;33.01;100286.22;4453045;28;20119;-52
2023/12/20 08:15:53;;;;;;;2.35;1.40;;;;;;;20.71;32.81;100295.28;4452031;28;20040;-52
2023/12/20 08:18:04;;;;;;;3.17;1.40;;;;;;;20.74;32.61;100297.38;4455746;28;20055;-53
2023/12/20 08:20:14;;;;;;;3.22;1.52;;;;;;;20.77;32.21;100282.28;4456181;28;20041;-54
2023/12/20 08:22:25;;;;;;;3.85;1.48;;;;;;;20.80;32.62;100292.19;4455746;28;20586;-55
2023/12/20 08:24:36;;;;;;;2.75;1.50;;;;;;;20.80;32.33;100292.19;4455781;28;20043;-55
2023/12/20 08:26:46;;;;;;;2.85;1.50;;;;;;;20.81;32.63;100288.13;4455870;28;20085;-51
2023/12/20 08:28:57;;;;;;;2.38;1.30;;;;;;;20.82;32.75;100289.75;4455787;28;20035;-55
2023/12/20 08:31:13;;;;;;;2.38;1.20;;;;;;;20.83;32.15;100296.34;4455956;28;20040;-52
2023/12/20 08:33:24;;;;;;;3.03;1.40;;;;;;;20.83;32.30;100294.31;4454569;28;20032;-53
2023/12/20 08:35:35;;;;;;;3.28;1.23;;;;;;;20.83;32.12;100279.97;4455469;28;20039;-53
2023/12/20 08:37:45;;;;;;;2.03;1.20;;;;;;;20.83;32.54;100275.03;4455627;28;20074;-55
2023/12/20 08:39:55;;;;;;;2.30;1.30;;;;;;;20.83;32.17;100274.25;4455605;28;20078;-55
2023/12/20 08:42:06;;;;;;;2.63;1.20;;;;;;;20.84;32.44;100273.00;4455767;28;20114;-54
2023/12/20 08:44:16;;;;;;;2.92;1.40;;;;;;;20.84;32.28;100264.41;4455601;28;20099;-53
2023/12/20 08:46:27;;;;;;;2.15;1.40;;;;;;;20.84;32.57;100264.41;4455335;28;20384;-54
2023/12/20 08:48:37;;;;;;;2.47;1.20;;;;;;;20.83;32.47;100251.28;4455436;28;20038;-56
2023/12/20 08:50:49;;;;;;;2.75;1.20;;;;;;;20.85;32.59;100271.84;4470322;28;20047;-52
2023/12/20 08:53:00;;;;;;;2.55;1.00;;;;;;;20.85;32.40;100266.09;4455377;28;20035;-52
2023/12/20 08:55:10;;;;;;;2.20;1.10;;;;;;;20.85;31.88;100266.09;4455232;28;20028;-51
2023/12/20 08:57:23;;;;;;;3.08;1.10;;;;;;;20.84;32.07;100255.81;4454917;28;20055;-54
2023/12/20 08:59:33;;;;;;;2.33;1.27;;;;;;;20.86;31.94;100262.00;4455542;28;20090;-52
2023/12/20 09:01:44;;;;;;;1.85;1.08;;;;;;;20.86;32.00;100256.25;4454960;28;20094;-53
2023/12/20 09:03:54;;;;;;;1.80;1.05;;;;;;;20.87;32.19;100257.91;4455234;28;20045;-52
2023/12/20 09:06:05;;;;;;;2.75;1.30;;;;;;;20.84;32.29;100258.69;4454772;28;20043;-53
2023/12/20 09:08:15;;;;;;;2.33;1.05;;;;;;;20.88;31.97;100256.72;4454913;28;20049;-54
2023/12/20 09:10:26;;;;;;;2.03;1.05;;;;;;;20.90;31.86;100262.91;4455213;28;20039;-51
2023/12/20 09:12:39;;;;;;;1.60;1.08;;;;;;;20.91;31.71;100247.38;4469757;28;20070;-53
2023/12/20 09:14:51;;;;;;;2.33;1.00;;;;;;;20.92;32.10;100251.88;4454899;28;20040;-55
2023/12/20 09:17:03;;;;;;;1.75;1.00;;;;;;;20.92;32.01;100254.75;4455254;28;20094;-52
2023/12/20 09:19:13;;;;;;;2.78;1.27;;;;;;;20.92;32.00;100251.88;4455152;28;20066;-56
2023/12/20 09:21:24;;;;;;;2.65;1.27;;;;;;;20.94;32.02;100252.34;4454647;28;20448;-52
2023/12/20 09:23:34;;;;;;;1.70;1.20;;;;;;;20.94;32.05;100240.03;4454797;28;20031;-53
2023/12/20 09:25:44;;;;;;;2.95;1.38;;;;;;;20.94;31.97;100243.72;4453053;28;20047;-51
2023/12/20 09:27:55;;;;;;;2.60;1.10;;;;;;;20.94;32.22;100248.63;4454700;28;20110;-52
2023/12/20 09:30:06;;;;;;;2.15;1.30;;;;;;;20.93;31.85;100232.63;4454806;28;20508;-52
2023/12/20 09:32:16;;;;;;;2.75;1.10;;;;;;;20.92;32.15;100231.78;4455011;28;20440;-52
2023/12/20 09:34:27;;;;;;;3.03;1.52;;;;;;;20.92;32.10;100243.28;4454724;28;20176;-52
2023/12/20 09:36:40;;;;;;;2.53;1.52;;;;;;;20.92;31.82;100243.28;4469733;28;20562;-53
2023/12/20 09:38:51;;;;;;;4.13;2.20;;;;;;;20.91;32.55;100227.28;4454464;28;20131;-52
2023/12/20 09:41:04;;;;;;;5.93;3.50;;;;;;;20.92;32.50;100233.81;4454890;28;20035;-53
2023/12/20 09:43:15;;;;;;;3.55;2.40;;;;;;;20.93;32.20;100216.22;4454487;28;20815;-52
2023/12/20 09:45:26;;;;;;;4.38;2.33;;;;;;;20.93;32.44;100216.22;4454590;28;20579;-55
2023/12/20 09:47:36;;;;;;;3.70;2.10;;;;;;;20.94;32.87;100211.34;4454681;28;20114;-53
2023/12/20 09:49:47;;;;;;;3.05;1.92;;;;;;;20.94;32.79;100214.19;4454897;28;20424;-54
2023/12/20 09:51:57;;;;;;;4.07;1.67;;;;;;;20.92;32.78;100208.84;4454443;28;20028;-52
2023/12/20 09:54:09;;;;;;;2.28;1.20;;;;;;;20.96;32.22;100208.94;4454896;28;20174;-52
2023/12/20 09:56:20;;;;;;;3.15;1.30;;;;;;;20.94;32.31;100212.19;4454072;28;20038;-52
2023/12/20 09:58:31;;;;;;;2.15;1.30;;;;;;;20.93;32.88;100199.03;4454572;28;20062;-53
2023/12/20 10:00:42;;;;;;;2.22;1.42;;;;;;;20.95;32.92;100202.34;4454752;28;20547;-56
2023/12/20 10:03:00;;;;;;;1.90;1.00;;;;;;;21.00;33.36;100202.06;4454484;28;20390;-54
2023/12/20 10:05:16;;;;;;;3.17;1.30;;;;;;;20.99;32.74;100197.56;4453994;28;20043;-56
2023/12/20 10:07:27;;;;;;;2.33;1.30;;;;;;;20.99;32.70;100206.16;4454525;28;20039;-55